sensor_id;sensor_type;location;lat;lon;timestamp;P1;durP1;ratioP1;P2;durP2;ratioP2
13566;SDS011;6855;48.112;11.298;2022-08-20T00:00:05;11.90;;;9.30;;
13566;SDS011;6855;48.112;11.298;2022-08-20T00:02:37;10.70;;;9.20;;
13566;SDS011;6855;48.112;11.298;2022-08-20T00:05:04;11.83;;;10.03;;
13566;SDS011;6855;48.112;11.298;2022-08-20T00:07:31;15.43;;;9.60;;
13566;SDS011;6855;48.112;11.298;2022-08-20T00:09:59;12.33;;;9.67;;
13566;SDS011;6855;48.112;11.298;2022-08-20T00:12:26;12.00;;;10.63;;
13566;SDS011;6855;48.112;11.298;2022-08-20T00:14:54;12.63;;;10.20;;
13566;SDS011;6855;48.112;11.298;2022-08-20T00:17:22;13.73;;;11.10;;
13566;SDS011;6855;48.112;11.298;2022-08-20T00:19:49;14.27;;;12.30;;
13566;SDS011;6855;48.112;11.298;2022-08-20T00:22:16;15.60;;;12.63;;
13566;SDS011;6855;48.112;11.298;2022-08-20T00:24:43;17.17;;;13.33;;
13566;SDS011;6855;48.112;11.298;2022-08-20T00:27:10;14.73;;;12.50;;
13566;SDS011;6855;48.112;11.298;2022-08-20T00:29:38;18.07;;;14.90;;
13566;SDS011;6855;48.112;11.298;2022-08-20T00:32:06;20.10;;;13.20;;
13566;SDS011;6855;48.112;11.298;2022-08-20T00:34:33;17.33;;;13.70;;
13566;SDS011;6855;48.112;11.298;2022-08-20T00:37:01;19.27;;;14.10;;
13566;SDS011;6855;48.112;11.298;2022-08-20T00:39:28;16.80;;;13.47;;
13566;SDS011;6855;48.112;11.298;2022-08-20T00:41:55;19.60;;;15.00;;
13566;SDS011;6855;48.112;11.298;2022-08-20T00:44:23;18.80;;;14.27;;
13566;SDS011;6855;48.112;11.298;2022-08-20T00:46:50;18.20;;;14.57;;
13566;SDS011;6855;48.112;11.298;2022-08-20T00:49:20;19.83;;;14.83;;
13566;SDS011;6855;48.112;11.298;2022-08-20T00:51:49;16.93;;;13.63;;
13566;SDS011;6855;48.112;11.298;2022-08-20T00:54:19;18.60;;;14.17;;
13566;SDS011;6855;48.112;11.298;2022-08-20T00:56:48;18.30;;;13.70;;
13566;SDS011;6855;48.112;11.298;2022-08-20T00:59:18;20.10;;;14.80;;
13566;SDS011;6855;48.112;11.298;2022-08-20T01:01:47;20.57;;;14.30;;
13566;SDS011;6855;48.112;11.298;2022-08-20T01:04:14;19.70;;;14.37;;
13566;SDS011;6855;48.112;11.298;2022-08-20T01:06:43;18.37;;;13.73;;
13566;SDS011;6855;48.112;11.298;2022-08-20T01:09:11;17.93;;;13.50;;
13566;SDS011;6855;48.112;11.298;2022-08-20T01:11:39;22.13;;;15.33;;
13566;SDS011;6855;48.112;11.298;2022-08-20T01:14:07;20.23;;;14.97;;
13566;SDS011;6855;48.112;11.298;2022-08-20T01:16:48;24.30;;;16.07;;
13566;SDS011;6855;48.112;11.298;2022-08-20T01:19:16;20.13;;;15.13;;
13566;SDS011;6855;48.112;11.298;2022-08-20T01:21:48;21.83;;;14.47;;
13566;SDS011;6855;48.112;11.298;2022-08-20T01:24:16;22.20;;;14.80;;
13566;SDS011;6855;48.112;11.298;2022-08-20T01:26:46;20.30;;;14.77;;
13566;SDS011;6855;48.112;11.298;2022-08-20T01:29:15;22.77;;;16.07;;
13566;SDS011;6855;48.112;11.298;2022-08-20T01:31:43;24.90;;;15.30;;
13566;SDS011;6855;48.112;11.298;2022-08-20T01:34:12;20.47;;;15.70;;
13566;SDS011;6855;48.112;11.298;2022-08-20T01:36:41;20.90;;;15.73;;
13566;SDS011;6855;48.112;11.298;2022-08-20T01:39:09;23.43;;;15.60;;
13566;SDS011;6855;48.112;11.298;2022-08-20T01:44:22;18.50;;;14.70;;
13566;SDS011;6855;48.112;11.298;2022-08-20T01:46:50;19.23;;;15.10;;
13566;SDS011;6855;48.112;11.298;2022-08-20T01:49:20;20.33;;;15.67;;
13566;SDS011;6855;48.112;11.298;2022-08-20T01:51:48;19.27;;;14.67;;
13566;SDS011;6855;48.112;11.298;2022-08-20T01:54:16;24.27;;;15.77;;
13566;SDS011;6855;48.112;11.298;2022-08-20T01:56:51;20.27;;;15.40;;
13566;SDS011;6855;48.112;11.298;2022-08-20T01:59:20;22.83;;;16.07;;
13566;SDS011;6855;48.112;11.298;2022-08-20T02:01:49;21.10;;;15.47;;
13566;SDS011;6855;48.112;11.298;2022-08-20T02:04:17;20.73;;;16.20;;
13566;SDS011;6855;48.112;11.298;2022-08-20T02:06:47;22.33;;;15.73;;
13566;SDS011;6855;48.112;11.298;2022-08-20T02:09:14;22.33;;;15.70;;
13566;SDS011;6855;48.112;11.298;2022-08-20T02:11:41;19.60;;;15.33;;
13566;SDS011;6855;48.112;11.298;2022-08-20T02:14:10;22.17;;;16.33;;
13566;SDS011;6855;48.112;11.298;2022-08-20T02:16:40;27.20;;;16.30;;
13566;SDS011;6855;48.112;11.298;2022-08-20T02:19:08;21.10;;;16.17;;
13566;SDS011;6855;48.112;11.298;2022-08-20T02:21:37;22.23;;;16.33;;
13566;SDS011;6855;48.112;11.298;2022-08-20T02:24:05;20.23;;;15.80;;
13566;SDS011;6855;48.112;11.298;2022-08-20T02:26:32;23.47;;;17.80;;
13566;SDS011;6855;48.112;11.298;2022-08-20T02:29:04;24.80;;;16.70;;
13566;SDS011;6855;48.112;11.298;2022-08-20T02:31:32;24.30;;;16.40;;
13566;SDS011;6855;48.112;11.298;2022-08-20T02:34:02;22.50;;;16.97;;
13566;SDS011;6855;48.112;11.298;2022-08-20T02:36:29;23.10;;;17.07;;
13566;SDS011;6855;48.112;11.298;2022-08-20T02:38:57;22.40;;;16.20;;
13566;SDS011;6855;48.112;11.298;2022-08-20T02:41:24;22.60;;;16.27;;
13566;SDS011;6855;48.112;11.298;2022-08-20T02:43:52;21.77;;;16.40;;
13566;SDS011;6855;48.112;11.298;2022-08-20T02:46:19;25.20;;;17.77;;
13566;SDS011;6855;48.112;11.298;2022-08-20T02:48:46;26.20;;;17.07;;
13566;SDS011;6855;48.112;11.298;2022-08-20T02:51:14;23.60;;;17.47;;
13566;SDS011;6855;48.112;11.298;2022-08-20T02:53:42;25.37;;;17.30;;
13566;SDS011;6855;48.112;11.298;2022-08-20T02:56:09;23.93;;;18.00;;
13566;SDS011;6855;48.112;11.298;2022-08-20T02:58:37;24.40;;;18.80;;
13566;SDS011;6855;48.112;11.298;2022-08-20T03:01:05;27.77;;;18.40;;
13566;SDS011;6855;48.112;11.298;2022-08-20T03:03:32;22.00;;;17.23;;
13566;SDS011;6855;48.112;11.298;2022-08-20T03:06:00;24.23;;;16.00;;
13566;SDS011;6855;48.112;11.298;2022-08-20T03:08:28;26.40;;;18.50;;
13566;SDS011;6855;48.112;11.298;2022-08-20T03:10:55;22.73;;;18.60;;
13566;SDS011;6855;48.112;11.298;2022-08-20T03:13:23;25.57;;;17.93;;
13566;SDS011;6855;48.112;11.298;2022-08-20T03:15:51;23.93;;;17.50;;
13566;SDS011;6855;48.112;11.298;2022-08-20T03:18:20;25.27;;;17.83;;
13566;SDS011;6855;48.112;11.298;2022-08-20T03:20:48;24.10;;;18.83;;
13566;SDS011;6855;48.112;11.298;2022-08-20T03:23:16;24.90;;;17.77;;
13566;SDS011;6855;48.112;11.298;2022-08-20T03:25:44;27.40;;;18.47;;
13566;SDS011;6855;48.112;11.298;2022-08-20T03:28:12;25.07;;;17.17;;
13566;SDS011;6855;48.112;11.298;2022-08-20T03:30:39;21.97;;;16.30;;
13566;SDS011;6855;48.112;11.298;2022-08-20T03:33:07;23.57;;;16.43;;
13566;SDS011;6855;48.112;11.298;2022-08-20T03:35:34;22.67;;;17.17;;
13566;SDS011;6855;48.112;11.298;2022-08-20T03:38:04;23.00;;;17.17;;
13566;SDS011;6855;48.112;11.298;2022-08-20T03:40:32;23.93;;;18.57;;
13566;SDS011;6855;48.112;11.298;2022-08-20T03:43:01;26.20;;;18.73;;
13566;SDS011;6855;48.112;11.298;2022-08-20T03:45:28;30.53;;;18.57;;
13566;SDS011;6855;48.112;11.298;2022-08-20T03:47:57;22.77;;;18.13;;
13566;SDS011;6855;48.112;11.298;2022-08-20T03:50:26;26.23;;;18.27;;
13566;SDS011;6855;48.112;11.298;2022-08-20T03:52:54;24.10;;;17.83;;
13566;SDS011;6855;48.112;11.298;2022-08-20T03:55:22;23.10;;;16.97;;
13566;SDS011;6855;48.112;11.298;2022-08-20T03:57:50;24.50;;;17.13;;
13566;SDS011;6855;48.112;11.298;2022-08-20T04:00:20;28.03;;;18.27;;
13566;SDS011;6855;48.112;11.298;2022-08-20T04:02:48;26.77;;;16.60;;
13566;SDS011;6855;48.112;11.298;2022-08-20T04:05:15;24.87;;;17.13;;
13566;SDS011;6855;48.112;11.298;2022-08-20T04:07:42;23.30;;;17.20;;
13566;SDS011;6855;48.112;11.298;2022-08-20T04:10:10;24.30;;;17.97;;
13566;SDS011;6855;48.112;11.298;2022-08-20T04:12:38;23.03;;;16.90;;
13566;SDS011;6855;48.112;11.298;2022-08-20T04:15:06;26.83;;;17.43;;
13566;SDS011;6855;48.112;11.298;2022-08-20T04:17:35;22.43;;;16.47;;
13566;SDS011;6855;48.112;11.298;2022-08-20T04:20:03;22.93;;;17.03;;
13566;SDS011;6855;48.112;11.298;2022-08-20T04:22:30;23.90;;;15.67;;
13566;SDS011;6855;48.112;11.298;2022-08-20T04:24:58;19.00;;;15.63;;
13566;SDS011;6855;48.112;11.298;2022-08-20T04:27:25;28.17;;;16.87;;
13566;SDS011;6855;48.112;11.298;2022-08-20T04:29:52;25.37;;;15.70;;
13566;SDS011;6855;48.112;11.298;2022-08-20T04:32:20;19.43;;;15.87;;
13566;SDS011;6855;48.112;11.298;2022-08-20T04:34:48;22.63;;;15.73;;
13566;SDS011;6855;48.112;11.298;2022-08-20T04:37:17;23.67;;;16.63;;
13566;SDS011;6855;48.112;11.298;2022-08-20T04:39:45;19.73;;;15.70;;
13566;SDS011;6855;48.112;11.298;2022-08-20T04:42:33;23.70;;;16.50;;
13566;SDS011;6855;48.112;11.298;2022-08-20T04:45:00;20.63;;;15.00;;
13566;SDS011;6855;48.112;11.298;2022-08-20T04:47:27;21.70;;;15.93;;
13566;SDS011;6855;48.112;11.298;2022-08-20T04:49:55;19.60;;;16.23;;
13566;SDS011;6855;48.112;11.298;2022-08-20T04:52:24;21.60;;;16.07;;
13566;SDS011;6855;48.112;11.298;2022-08-20T04:54:52;22.83;;;16.07;;
13566;SDS011;6855;48.112;11.298;2022-08-20T04:57:20;26.80;;;17.00;;
13566;SDS011;6855;48.112;11.298;2022-08-20T04:59:50;24.03;;;16.17;;
13566;SDS011;6855;48.112;11.298;2022-08-20T05:02:17;19.97;;;15.30;;
13566;SDS011;6855;48.112;11.298;2022-08-20T05:04:44;21.80;;;15.60;;
13566;SDS011;6855;48.112;11.298;2022-08-20T05:07:14;24.35;;;17.58;;
13566;SDS011;6855;48.112;11.298;2022-08-20T05:09:42;23.50;;;18.23;;
13566;SDS011;6855;48.112;11.298;2022-08-20T05:12:10;21.43;;;15.27;;
13566;SDS011;6855;48.112;11.298;2022-08-20T05:14:37;21.73;;;15.50;;
13566;SDS011;6855;48.112;11.298;2022-08-20T05:17:05;19.77;;;15.10;;
13566;SDS011;6855;48.112;11.298;2022-08-20T05:19:33;21.10;;;15.83;;
13566;SDS011;6855;48.112;11.298;2022-08-20T05:22:02;20.70;;;14.50;;
13566;SDS011;6855;48.112;11.298;2022-08-20T05:24:30;19.37;;;14.43;;
13566;SDS011;6855;48.112;11.298;2022-08-20T05:26:58;22.47;;;15.17;;
13566;SDS011;6855;48.112;11.298;2022-08-20T05:29:25;18.53;;;14.03;;
13566;SDS011;6855;48.112;11.298;2022-08-20T05:31:52;20.17;;;14.40;;
13566;SDS011;6855;48.112;11.298;2022-08-20T05:34:20;18.67;;;14.20;;
13566;SDS011;6855;48.112;11.298;2022-08-20T05:36:49;20.40;;;14.80;;
13566;SDS011;6855;48.112;11.298;2022-08-20T05:39:17;22.80;;;15.00;;
13566;SDS011;6855;48.112;11.298;2022-08-20T05:41:46;17.30;;;13.50;;
13566;SDS011;6855;48.112;11.298;2022-08-20T05:44:15;16.17;;;13.40;;
13566;SDS011;6855;48.112;11.298;2022-08-20T05:46:43;20.90;;;15.10;;
13566;SDS011;6855;48.112;11.298;2022-08-20T05:49:11;19.80;;;13.43;;
13566;SDS011;6855;48.112;11.298;2022-08-20T05:51:39;18.13;;;13.03;;
13566;SDS011;6855;48.112;11.298;2022-08-20T05:54:07;19.67;;;13.50;;
13566;SDS011;6855;48.112;11.298;2022-08-20T05:56:34;15.70;;;12.73;;
13566;SDS011;6855;48.112;11.298;2022-08-20T05:59:03;18.83;;;12.13;;
13566;SDS011;6855;48.112;11.298;2022-08-20T06:01:31;16.37;;;12.77;;
13566;SDS011;6855;48.112;11.298;2022-08-20T06:03:59;20.50;;;12.43;;
13566;SDS011;6855;48.112;11.298;2022-08-20T06:06:44;17.87;;;12.80;;
13566;SDS011;6855;48.112;11.298;2022-08-20T06:09:11;15.73;;;13.27;;
13566;SDS011;6855;48.112;11.298;2022-08-20T06:11:38;19.73;;;12.90;;
13566;SDS011;6855;48.112;11.298;2022-08-20T06:14:07;13.47;;;11.83;;
13566;SDS011;6855;48.112;11.298;2022-08-20T06:16:34;14.70;;;11.77;;
13566;SDS011;6855;48.112;11.298;2022-08-20T06:19:02;19.70;;;12.43;;
13566;SDS011;6855;48.112;11.298;2022-08-20T06:21:29;16.90;;;12.40;;
13566;SDS011;6855;48.112;11.298;2022-08-20T06:23:56;15.40;;;11.97;;
13566;SDS011;6855;48.112;11.298;2022-08-20T06:26:23;15.90;;;11.47;;
13566;SDS011;6855;48.112;11.298;2022-08-20T06:28:51;16.50;;;11.67;;
13566;SDS011;6855;48.112;11.298;2022-08-20T06:31:19;13.00;;;10.53;;
13566;SDS011;6855;48.112;11.298;2022-08-20T06:33:47;13.47;;;9.60;;
13566;SDS011;6855;48.112;11.298;2022-08-20T06:36:14;14.90;;;11.27;;
13566;SDS011;6855;48.112;11.298;2022-08-20T06:38:41;12.40;;;11.10;;
13566;SDS011;6855;48.112;11.298;2022-08-20T06:41:10;16.33;;;12.47;;
13566;SDS011;6855;48.112;11.298;2022-08-20T06:43:37;13.53;;;10.83;;
13566;SDS011;6855;48.112;11.298;2022-08-20T06:46:04;13.23;;;10.90;;
13566;SDS011;6855;48.112;11.298;2022-08-20T06:48:33;11.30;;;10.10;;
13566;SDS011;6855;48.112;11.298;2022-08-20T06:51:00;13.10;;;11.33;;
13566;SDS011;6855;48.112;11.298;2022-08-20T06:53:30;12.07;;;9.67;;
13566;SDS011;6855;48.112;11.298;2022-08-20T06:55:57;12.07;;;10.57;;
13566;SDS011;6855;48.112;11.298;2022-08-20T06:58:25;18.60;;;11.07;;
13566;SDS011;6855;48.112;11.298;2022-08-20T07:00:55;12.40;;;11.00;;
13566;SDS011;6855;48.112;11.298;2022-08-20T07:03:24;12.60;;;10.33;;
13566;SDS011;6855;48.112;11.298;2022-08-20T07:05:52;10.63;;;9.53;;
13566;SDS011;6855;48.112;11.298;2022-08-20T07:08:19;10.37;;;9.27;;
13566;SDS011;6855;48.112;11.298;2022-08-20T07:10:47;11.07;;;9.67;;
13566;SDS011;6855;48.112;11.298;2022-08-20T07:13:14;14.10;;;10.40;;
13566;SDS011;6855;48.112;11.298;2022-08-20T07:15:42;11.63;;;9.83;;
13566;SDS011;6855;48.112;11.298;2022-08-20T07:18:10;11.07;;;9.30;;
13566;SDS011;6855;48.112;11.298;2022-08-20T07:20:38;10.77;;;9.67;;
13566;SDS011;6855;48.112;11.298;2022-08-20T07:23:07;13.00;;;10.47;;
13566;SDS011;6855;48.112;11.298;2022-08-20T07:25:36;8.80;;;7.90;;
13566;SDS011;6855;48.112;11.298;2022-08-20T07:28:05;11.30;;;9.37;;
13566;SDS011;6855;48.112;11.298;2022-08-20T07:30:32;10.60;;;8.93;;
13566;SDS011;6855;48.112;11.298;2022-08-20T07:33:17;9.77;;;8.77;;
13566;SDS011;6855;48.112;11.298;2022-08-20T07:35:44;11.60;;;8.53;;
13566;SDS011;6855;48.112;11.298;2022-08-20T07:38:14;9.10;;;8.20;;
13566;SDS011;6855;48.112;11.298;2022-08-20T07:40:49;13.27;;;9.10;;
13566;SDS011;6855;48.112;11.298;2022-08-20T07:43:16;10.10;;;8.40;;
13566;SDS011;6855;48.112;11.298;2022-08-20T07:45:43;10.57;;;8.70;;
13566;SDS011;6855;48.112;11.298;2022-08-20T07:48:11;9.53;;;8.10;;
13566;SDS011;6855;48.112;11.298;2022-08-20T07:50:39;10.20;;;8.60;;
13566;SDS011;6855;48.112;11.298;2022-08-20T07:53:07;10.40;;;7.67;;
13566;SDS011;6855;48.112;11.298;2022-08-20T07:55:37;12.20;;;8.47;;
13566;SDS011;6855;48.112;11.298;2022-08-20T07:58:07;10.60;;;8.80;;
13566;SDS011;6855;48.112;11.298;2022-08-20T08:00:35;14.57;;;9.00;;
13566;SDS011;6855;48.112;11.298;2022-08-20T08:03:02;9.57;;;8.57;;
13566;SDS011;6855;48.112;11.298;2022-08-20T08:05:30;10.00;;;8.90;;
13566;SDS011;6855;48.112;11.298;2022-08-20T08:07:57;10.20;;;8.70;;
13566;SDS011;6855;48.112;11.298;2022-08-20T08:10:25;11.30;;;8.30;;
13566;SDS011;6855;48.112;11.298;2022-08-20T08:12:54;9.73;;;8.77;;
13566;SDS011;6855;48.112;11.298;2022-08-20T08:15:23;11.10;;;7.80;;
13566;SDS011;6855;48.112;11.298;2022-08-20T08:17:52;10.90;;;9.23;;
13566;SDS011;6855;48.112;11.298;2022-08-20T08:20:21;8.37;;;7.57;;
13566;SDS011;6855;48.112;11.298;2022-08-20T08:22:49;8.47;;;7.67;;
13566;SDS011;6855;48.112;11.298;2022-08-20T08:25:16;8.97;;;8.03;;
13566;SDS011;6855;48.112;11.298;2022-08-20T08:27:43;8.20;;;7.37;;
13566;SDS011;6855;48.112;11.298;2022-08-20T08:30:15;9.73;;;7.20;;
13566;SDS011;6855;48.112;11.298;2022-08-20T08:32:42;8.20;;;7.00;;
13566;SDS011;6855;48.112;11.298;2022-08-20T08:35:23;11.90;;;7.43;;
13566;SDS011;6855;48.112;11.298;2022-08-20T08:37:51;8.17;;;6.80;;
13566;SDS011;6855;48.112;11.298;2022-08-20T08:40:19;8.20;;;7.07;;
13566;SDS011;6855;48.112;11.298;2022-08-20T08:42:47;9.97;;;7.47;;
13566;SDS011;6855;48.112;11.298;2022-08-20T08:45:20;8.60;;;7.40;;
13566;SDS011;6855;48.112;11.298;2022-08-20T08:47:47;8.90;;;7.33;;
13566;SDS011;6855;48.112;11.298;2022-08-20T08:50:18;8.27;;;7.57;;
13566;SDS011;6855;48.112;11.298;2022-08-20T08:52:46;12.80;;;8.47;;
13566;SDS011;6855;48.112;11.298;2022-08-20T08:55:17;10.70;;;8.20;;
13566;SDS011;6855;48.112;11.298;2022-08-20T08:57:45;9.70;;;7.80;;
13566;SDS011;6855;48.112;11.298;2022-08-20T09:00:14;8.67;;;7.63;;
13566;SDS011;6855;48.112;11.298;2022-08-20T09:02:53;8.87;;;7.90;;
13566;SDS011;6855;48.112;11.298;2022-08-20T09:05:22;10.30;;;8.60;;
13566;SDS011;6855;48.112;11.298;2022-08-20T09:07:53;9.83;;;7.77;;
13566;SDS011;6855;48.112;11.298;2022-08-20T09:10:21;12.80;;;7.80;;
13566;SDS011;6855;48.112;11.298;2022-08-20T09:12:49;12.73;;;7.63;;
13566;SDS011;6855;48.112;11.298;2022-08-20T09:15:16;10.23;;;8.23;;
13566;SDS011;6855;48.112;11.298;2022-08-20T09:17:43;8.00;;;7.20;;
13566;SDS011;6855;48.112;11.298;2022-08-20T09:20:12;8.17;;;7.03;;
13566;SDS011;6855;48.112;11.298;2022-08-20T09:22:39;8.70;;;7.47;;
13566;SDS011;6855;48.112;11.298;2022-08-20T09:25:07;9.50;;;7.63;;
13566;SDS011;6855;48.112;11.298;2022-08-20T09:27:34;13.13;;;8.20;;
13566;SDS011;6855;48.112;11.298;2022-08-20T09:30:02;8.43;;;7.47;;
13566;SDS011;6855;48.112;11.298;2022-08-20T09:32:29;7.83;;;7.03;;
13566;SDS011;6855;48.112;11.298;2022-08-20T09:34:56;7.90;;;6.93;;
13566;SDS011;6855;48.112;11.298;2022-08-20T09:37:26;8.17;;;7.23;;
13566;SDS011;6855;48.112;11.298;2022-08-20T09:39:53;8.43;;;7.60;;
13566;SDS011;6855;48.112;11.298;2022-08-20T09:42:25;11.30;;;7.97;;
13566;SDS011;6855;48.112;11.298;2022-08-20T09:44:53;15.83;;;8.70;;
13566;SDS011;6855;48.112;11.298;2022-08-20T09:47:20;14.17;;;10.63;;
13566;SDS011;6855;48.112;11.298;2022-08-20T09:49:47;15.03;;;10.90;;
13566;SDS011;6855;48.112;11.298;2022-08-20T09:52:17;16.23;;;10.63;;
13566;SDS011;6855;48.112;11.298;2022-08-20T09:54:47;15.60;;;11.47;;
13566;SDS011;6855;48.112;11.298;2022-08-20T09:57:15;18.30;;;11.00;;
13566;SDS011;6855;48.112;11.298;2022-08-20T09:59:43;13.93;;;11.57;;
13566;SDS011;6855;48.112;11.298;2022-08-20T10:02:12;11.67;;;10.47;;
13566;SDS011;6855;48.112;11.298;2022-08-20T10:04:40;13.70;;;12.10;;
13566;SDS011;6855;48.112;11.298;2022-08-20T10:07:07;11.93;;;10.60;;
13566;SDS011;6855;48.112;11.298;2022-08-20T10:09:35;15.40;;;12.93;;
13566;SDS011;6855;48.112;11.298;2022-08-20T10:12:04;12.27;;;10.63;;
13566;SDS011;6855;48.112;11.298;2022-08-20T10:14:31;15.43;;;11.50;;
13566;SDS011;6855;48.112;11.298;2022-08-20T10:16:59;19.13;;;11.20;;
13566;SDS011;6855;48.112;11.298;2022-08-20T10:19:26;12.87;;;11.67;;
13566;SDS011;6855;48.112;11.298;2022-08-20T10:21:55;12.80;;;10.60;;
13566;SDS011;6855;48.112;11.298;2022-08-20T10:24:23;12.50;;;10.67;;
13566;SDS011;6855;48.112;11.298;2022-08-20T10:26:53;13.67;;;11.00;;
13566;SDS011;6855;48.112;11.298;2022-08-20T10:29:21;11.37;;;10.17;;
13566;SDS011;6855;48.112;11.298;2022-08-20T10:31:49;10.90;;;9.03;;
13566;SDS011;6855;48.112;11.298;2022-08-20T10:34:16;11.60;;;9.77;;
13566;SDS011;6855;48.112;11.298;2022-08-20T10:36:43;10.27;;;8.80;;
13566;SDS011;6855;48.112;11.298;2022-08-20T10:39:11;9.90;;;8.90;;
13566;SDS011;6855;48.112;11.298;2022-08-20T10:41:38;11.00;;;9.60;;
13566;SDS011;6855;48.112;11.298;2022-08-20T10:44:05;12.03;;;9.20;;
13566;SDS011;6855;48.112;11.298;2022-08-20T10:46:34;10.37;;;9.40;;
13566;SDS011;6855;48.112;11.298;2022-08-20T10:49:01;10.90;;;8.30;;
13566;SDS011;6855;48.112;11.298;2022-08-20T10:51:29;20.47;;;9.37;;
13566;SDS011;6855;48.112;11.298;2022-08-20T10:53:56;9.93;;;8.33;;
13566;SDS011;6855;48.112;11.298;2022-08-20T10:56:23;10.40;;;8.50;;
13566;SDS011;6855;48.112;11.298;2022-08-20T10:58:50;8.30;;;7.40;;
13566;SDS011;6855;48.112;11.298;2022-08-20T11:01:17;9.10;;;8.00;;
13566;SDS011;6855;48.112;11.298;2022-08-20T11:03:46;8.37;;;7.20;;
13566;SDS011;6855;48.112;11.298;2022-08-20T11:06:13;9.20;;;8.30;;
13566;SDS011;6855;48.112;11.298;2022-08-20T11:08:40;11.53;;;9.03;;
13566;SDS011;6855;48.112;11.298;2022-08-20T11:11:08;9.50;;;8.50;;
13566;SDS011;6855;48.112;11.298;2022-08-20T11:13:35;10.87;;;8.37;;
13566;SDS011;6855;48.112;11.298;2022-08-20T11:16:02;9.70;;;8.47;;
13566;SDS011;6855;48.112;11.298;2022-08-20T11:18:30;10.20;;;8.17;;
13566;SDS011;6855;48.112;11.298;2022-08-20T11:20:59;9.20;;;8.10;;
13566;SDS011;6855;48.112;11.298;2022-08-20T11:23:26;8.10;;;7.20;;
13566;SDS011;6855;48.112;11.298;2022-08-20T11:25:53;11.20;;;7.87;;
13566;SDS011;6855;48.112;11.298;2022-08-20T11:28:21;14.83;;;8.00;;
13566;SDS011;6855;48.112;11.298;2022-08-20T11:30:48;8.07;;;7.27;;
13566;SDS011;6855;48.112;11.298;2022-08-20T11:33:15;10.20;;;8.03;;
13566;SDS011;6855;48.112;11.298;2022-08-20T11:35:42;8.87;;;7.97;;
13566;SDS011;6855;48.112;11.298;2022-08-20T11:38:11;11.37;;;7.67;;
13566;SDS011;6855;48.112;11.298;2022-08-20T11:40:38;7.67;;;6.90;;
13566;SDS011;6855;48.112;11.298;2022-08-20T11:43:05;12.43;;;7.30;;
13566;SDS011;6855;48.112;11.298;2022-08-20T11:45:33;9.67;;;7.90;;
13566;SDS011;6855;48.112;11.298;2022-08-20T11:48:00;8.40;;;6.90;;
13566;SDS011;6855;48.112;11.298;2022-08-20T11:50:27;9.93;;;7.80;;
13566;SDS011;6855;48.112;11.298;2022-08-20T11:52:54;7.53;;;6.73;;
13566;SDS011;6855;48.112;11.298;2022-08-20T11:55:23;8.27;;;7.37;;
13566;SDS011;6855;48.112;11.298;2022-08-20T11:57:50;8.67;;;7.77;;
13566;SDS011;6855;48.112;11.298;2022-08-20T12:00:18;8.80;;;7.70;;
13566;SDS011;6855;48.112;11.298;2022-08-20T12:02:48;8.37;;;7.47;;
13566;SDS011;6855;48.112;11.298;2022-08-20T12:05:16;7.60;;;6.90;;
13566;SDS011;6855;48.112;11.298;2022-08-20T12:07:43;8.60;;;7.70;;
13566;SDS011;6855;48.112;11.298;2022-08-20T12:10:11;7.33;;;6.60;;
13566;SDS011;6855;48.112;11.298;2022-08-20T12:12:39;9.80;;;7.17;;
13566;SDS011;6855;48.112;11.298;2022-08-20T12:15:08;7.63;;;6.43;;
13566;SDS011;6855;48.112;11.298;2022-08-20T12:17:36;8.43;;;7.10;;
13566;SDS011;6855;48.112;11.298;2022-08-20T12:20:05;7.70;;;6.60;;
13566;SDS011;6855;48.112;11.298;2022-08-20T12:22:32;7.97;;;6.47;;
13566;SDS011;6855;48.112;11.298;2022-08-20T12:24:59;7.50;;;6.77;;
13566;SDS011;6855;48.112;11.298;2022-08-20T12:27:28;7.80;;;7.00;;
13566;SDS011;6855;48.112;11.298;2022-08-20T12:29:58;7.83;;;6.93;;
13566;SDS011;6855;48.112;11.298;2022-08-20T12:32:27;9.10;;;7.73;;
13566;SDS011;6855;48.112;11.298;2022-08-20T12:34:55;7.97;;;6.27;;
13566;SDS011;6855;48.112;11.298;2022-08-20T12:37:23;7.53;;;6.73;;
13566;SDS011;6855;48.112;11.298;2022-08-20T12:39:51;8.93;;;6.47;;
13566;SDS011;6855;48.112;11.298;2022-08-20T12:42:19;7.57;;;6.03;;
13566;SDS011;6855;48.112;11.298;2022-08-20T12:44:46;11.80;;;5.97;;
13566;SDS011;6855;48.112;11.298;2022-08-20T12:47:17;7.90;;;6.87;;
13566;SDS011;6855;48.112;11.298;2022-08-20T12:49:45;8.63;;;6.70;;
13566;SDS011;6855;48.112;11.298;2022-08-20T12:52:13;12.20;;;7.13;;
13566;SDS011;6855;48.112;11.298;2022-08-20T12:54:41;8.57;;;6.03;;
13566;SDS011;6855;48.112;11.298;2022-08-20T12:57:12;6.10;;;5.50;;
13566;SDS011;6855;48.112;11.298;2022-08-20T12:59:40;6.40;;;5.50;;
13566;SDS011;6855;48.112;11.298;2022-08-20T13:02:07;7.30;;;5.30;;
13566;SDS011;6855;48.112;11.298;2022-08-20T13:04:36;5.60;;;5.10;;
13566;SDS011;6855;48.112;11.298;2022-08-20T13:07:03;5.30;;;4.80;;
13566;SDS011;6855;48.112;11.298;2022-08-20T13:09:30;4.83;;;4.43;;
13566;SDS011;6855;48.112;11.298;2022-08-20T13:11:58;5.83;;;5.23;;
13566;SDS011;6855;48.112;11.298;2022-08-20T13:14:25;5.20;;;4.70;;
13566;SDS011;6855;48.112;11.298;2022-08-20T13:16:56;6.00;;;5.00;;
13566;SDS011;6855;48.112;11.298;2022-08-20T13:19:23;5.57;;;5.07;;
13566;SDS011;6855;48.112;11.298;2022-08-20T13:21:52;4.23;;;3.70;;
13566;SDS011;6855;48.112;11.298;2022-08-20T13:24:19;5.90;;;3.30;;
13566;SDS011;6855;48.112;11.298;2022-08-20T13:26:47;3.57;;;2.90;;
13566;SDS011;6855;48.112;11.298;2022-08-20T13:29:14;6.17;;;3.10;;
13566;SDS011;6855;48.112;11.298;2022-08-20T13:31:42;4.10;;;2.47;;
13566;SDS011;6855;48.112;11.298;2022-08-20T13:34:09;2.73;;;2.33;;
13566;SDS011;6855;48.112;11.298;2022-08-20T13:36:37;5.03;;;2.13;;
13566;SDS011;6855;48.112;11.298;2022-08-20T13:39:06;6.40;;;2.00;;
13566;SDS011;6855;48.112;11.298;2022-08-20T13:41:33;3.67;;;2.00;;
13566;SDS011;6855;48.112;11.298;2022-08-20T13:44:00;2.07;;;1.87;;
13566;SDS011;6855;48.112;11.298;2022-08-20T13:46:28;5.60;;;1.90;;
13566;SDS011;6855;48.112;11.298;2022-08-20T13:48:55;5.93;;;2.00;;
13566;SDS011;6855;48.112;11.298;2022-08-20T13:51:22;2.73;;;1.90;;
13566;SDS011;6855;48.112;11.298;2022-08-20T13:53:49;2.70;;;2.13;;
13566;SDS011;6855;48.112;11.298;2022-08-20T13:56:18;5.43;;;1.93;;
13566;SDS011;6855;48.112;11.298;2022-08-20T13:58:45;2.80;;;1.77;;
13566;SDS011;6855;48.112;11.298;2022-08-20T14:01:12;3.53;;;1.47;;
13566;SDS011;6855;48.112;11.298;2022-08-20T14:03:40;2.93;;;1.97;;
13566;SDS011;6855;48.112;11.298;2022-08-20T14:06:07;4.10;;;1.83;;
13566;SDS011;6855;48.112;11.298;2022-08-20T14:08:34;3.10;;;1.83;;
13566;SDS011;6855;48.112;11.298;2022-08-20T14:11:02;2.67;;;1.80;;
13566;SDS011;6855;48.112;11.298;2022-08-20T14:13:30;1.63;;;1.53;;
13566;SDS011;6855;48.112;11.298;2022-08-20T14:15:58;2.00;;;1.27;;
13566;SDS011;6855;48.112;11.298;2022-08-20T14:18:25;1.50;;;1.40;;
13566;SDS011;6855;48.112;11.298;2022-08-20T14:20:52;2.70;;;1.63;;
13566;SDS011;6855;48.112;11.298;2022-08-20T14:23:20;1.80;;;1.70;;
13566;SDS011;6855;48.112;11.298;2022-08-20T14:25:47;4.43;;;2.17;;
13566;SDS011;6855;48.112;11.298;2022-08-20T14:28:15;4.27;;;1.90;;
13566;SDS011;6855;48.112;11.298;2022-08-20T14:30:45;2.00;;;1.73;;
13566;SDS011;6855;48.112;11.298;2022-08-20T14:33:12;2.80;;;1.63;;
13566;SDS011;6855;48.112;11.298;2022-08-20T14:35:39;2.23;;;1.53;;
13566;SDS011;6855;48.112;11.298;2022-08-20T14:38:07;2.10;;;1.67;;